createdAt,value
2023-05-18T00:02:58.236Z,12.61
2023-05-18T00:08:01.828Z,12.59
2023-05-18T00:13:05.568Z,12.58
2023-05-18T00:18:08.686Z,12.50
2023-05-18T00:23:16.689Z,12.45
2023-05-18T00:28:19.398Z,12.36
2023-05-18T00:33:23.014Z,12.25
2023-05-18T00:38:25.775Z,12.26
2023-05-18T00:43:28.590Z,12.29
2023-05-18T00:48:31.373Z,12.31
2023-05-18T00:53:34.319Z,12.28
2023-05-18T00:58:42.137Z,12.42
2023-05-18T01:03:45.051Z,12.37
2023-05-18T01:08:48.653Z,12.39
2023-05-18T01:14:22.301Z,12.52
2023-05-18T01:19:43.232Z,12.57
2023-05-18T01:24:49.368Z,12.72
2023-05-18T01:29:56.496Z,12.91
2023-05-18T01:34:59.218Z,14.13
2023-05-18T01:40:02.165Z,15.67
2023-05-18T01:45:15.032Z,17.45
2023-05-18T01:50:22.727Z,19.14
2023-05-18T01:55:30.162Z,20.86
2023-05-18T02:00:33.747Z,22.67
2023-05-18T02:05:36.503Z,24.45
2023-05-18T02:10:39.463Z,26.46
2023-05-18T02:15:44.804Z,28.23
2023-05-18T02:20:49.856Z,29.60
2023-05-18T02:25:55.543Z,30.64
2023-05-18T02:31:06.821Z,32.16
2023-05-18T02:36:13.146Z,33.35
2023-05-18T02:41:17.119Z,34.67
2023-05-18T02:46:20.027Z,35.84
2023-05-18T02:51:23.146Z,36.80
2023-05-18T02:56:26.423Z,37.35
2023-05-18T03:01:41.333Z,36.15
2023-05-18T03:06:46.715Z,31.31
2023-05-18T03:11:51.912Z,28.76
2023-05-18T03:16:58.133Z,26.94
2023-05-18T03:22:01.506Z,25.73
2023-05-18T03:27:05.339Z,24.99
2023-05-18T03:32:08.402Z,24.80
2023-05-18T03:37:14.473Z,24.59
2023-05-18T03:42:17.481Z,24.19
2023-05-18T03:47:22.325Z,23.92
2023-05-18T03:52:25.525Z,23.88
2023-05-18T03:57:29.723Z,23.70
2023-05-18T04:02:32.994Z,23.29
2023-05-18T04:07:43.957Z,23.09
2023-05-18T04:12:46.908Z,22.87
2023-05-18T04:17:52.106Z,22.56
2023-05-18T04:22:55.585Z,22.68
2023-05-18T04:28:01.523Z,22.68
2023-05-18T04:33:06.778Z,22.77
2023-05-18T04:38:10.953Z,22.65
2023-05-18T04:43:13.806Z,22.67
2023-05-18T04:48:19.347Z,22.77
2023-05-18T04:53:23.292Z,22.95
2023-05-18T04:58:26.154Z,22.91
2023-05-18T05:03:29.217Z,23.06
2023-05-18T05:08:32.230Z,23.15
2023-05-18T05:13:36.290Z,23.21
2023-05-18T05:18:39.295Z,23.35
2023-05-18T05:23:42.258Z,23.52
2023-05-18T05:28:45.980Z,23.68
2023-05-18T05:33:48.690Z,23.78
2023-05-18T05:38:51.593Z,23.83
2023-05-18T05:43:54.650Z,24.01
2023-05-18T05:48:57.406Z,23.93
2023-05-18T05:54:00.125Z,24.11
2023-05-18T05:59:03.075Z,24.15
2023-05-18T06:04:10.715Z,24.31
2023-05-18T06:09:14.038Z,24.24
2023-05-18T06:14:16.999Z,24.25
2023-05-18T06:19:20.766Z,24.23
2023-05-18T06:24:23.961Z,24.40
2023-05-18T06:29:49.249Z,24.63
2023-05-18T06:35:09.058Z,24.88
2023-05-18T06:40:11.996Z,24.90
2023-05-18T06:45:15.189Z,24.97
2023-05-18T06:50:25.809Z,25.05
2023-05-18T06:55:29.287Z,24.95
2023-05-18T07:00:34.102Z,24.78
2023-05-18T07:05:39.595Z,25.14
2023-05-18T07:10:43.281Z,25.27
2023-05-18T07:15:46.016Z,25.53
2023-05-18T07:20:48.756Z,25.46
2023-05-18T07:25:51.899Z,25.62
2023-05-18T07:30:54.637Z,25.91
2023-05-18T07:35:57.567Z,26.18
2023-05-18T07:41:00.538Z,26.25
2023-05-18T07:46:03.353Z,26.22
2023-05-18T07:51:06.208Z,25.75
2023-05-18T07:56:09.416Z,26.20
2023-05-18T08:01:12.348Z,26.10
2023-05-18T08:06:15.163Z,26.10
2023-05-18T08:11:17.918Z,26.45
2023-05-18T08:16:21.094Z,26.72
2023-05-18T08:21:26.381Z,27.03
2023-05-18T08:26:29.161Z,27.27
2023-05-18T08:31:32.305Z,26.83
2023-05-18T08:36:36.246Z,26.92
2023-05-18T08:41:48.016Z,27.42
2023-05-18T08:46:51.577Z,26.88
2023-05-18T08:52:03.426Z,27.16
2023-05-18T08:57:12.120Z,26.80
2023-05-18T09:02:15.473Z,26.17
2023-05-18T09:07:19.077Z,26.65
2023-05-18T09:12:25.536Z,27.46
2023-05-18T09:17:28.206Z,27.71
2023-05-18T09:22:31.311Z,27.63
2023-05-18T09:27:34.291Z,27.72
2023-05-18T09:32:37.176Z,27.46
2023-05-18T09:37:43.571Z,26.72
2023-05-18T09:42:46.343Z,26.22
2023-05-18T09:47:50.625Z,27.00
2023-05-18T09:52:53.447Z,27.13
2023-05-18T09:57:56.815Z,26.93
2023-05-18T10:03:01.170Z,26.92
2023-05-18T10:08:04.177Z,27.64
2023-05-18T10:13:07.182Z,27.80
2023-05-18T10:18:09.909Z,28.13
2023-05-18T10:23:13.188Z,28.66
2023-05-18T10:28:33.076Z,29.04
2023-05-18T10:33:37.481Z,29.28
2023-05-18T10:38:45.433Z,28.73
2023-05-18T10:43:48.874Z,28.73
2023-05-18T10:48:53.253Z,29.14
2023-05-18T10:54:10.874Z,28.96
2023-05-18T10:59:15.062Z,28.12
2023-05-18T11:04:24.864Z,28.26
2023-05-18T11:09:29.608Z,27.96
2023-05-18T11:14:33.099Z,28.19
2023-05-18T11:19:37.109Z,28.44
2023-05-18T11:24:42.545Z,28.48
2023-05-18T11:29:46.758Z,28.69
2023-05-18T11:34:54.223Z,29.06
2023-05-18T11:40:01.109Z,28.51
2023-05-18T11:45:09.436Z,28.06
2023-05-18T11:50:12.848Z,28.08
2023-05-18T11:55:20.169Z,28.55
2023-05-18T12:00:24.868Z,28.46
2023-05-18T12:05:30.817Z,28.11
2023-05-18T12:10:36.878Z,28.11
2023-05-18T12:15:40.605Z,28.26
2023-05-18T12:20:43.799Z,28.05
2023-05-18T12:25:46.576Z,27.62
2023-05-18T12:30:49.267Z,27.29
2023-05-18T12:35:55.026Z,26.88
2023-05-18T12:40:57.694Z,26.75
2023-05-18T12:46:05.135Z,26.63
2023-05-18T12:51:18.256Z,27.11
2023-05-18T12:56:21.126Z,26.76
2023-05-18T13:01:25.189Z,26.28
2023-05-18T13:06:27.918Z,26.14
2023-05-18T13:11:30.599Z,26.63
2023-05-18T13:16:37.505Z,27.05
2023-05-18T13:21:40.490Z,26.97
2023-05-18T13:26:43.192Z,26.86
2023-05-18T13:31:46.010Z,27.10
2023-05-18T13:36:48.776Z,26.96
2023-05-18T13:41:51.362Z,27.06
2023-05-18T13:46:54.011Z,26.78
2023-05-18T13:51:59.524Z,26.75
2023-05-18T13:57:02.524Z,26.63
2023-05-18T14:02:05.451Z,26.20
2023-05-18T14:07:09.639Z,25.89
2023-05-18T14:12:13.173Z,25.91
2023-05-18T14:17:15.849Z,25.99
2023-05-18T14:22:18.944Z,25.67
2023-05-18T14:27:21.873Z,25.41
2023-05-18T14:32:24.706Z,25.17
2023-05-18T14:37:27.434Z,24.97
2023-05-18T14:42:31.065Z,24.79
2023-05-18T14:47:33.741Z,24.62
2023-05-18T14:52:36.563Z,24.31
2023-05-18T14:57:39.264Z,24.23
2023-05-18T15:02:42.572Z,24.18
2023-05-18T15:07:45.286Z,23.50
2023-05-18T15:12:48.053Z,23.50
2023-05-18T15:17:50.860Z,23.22
2023-05-18T15:22:53.648Z,23.01
2023-05-18T15:27:59.380Z,22.80
2023-05-18T15:33:06.322Z,22.56
2023-05-18T15:38:09.245Z,22.42
2023-05-18T15:43:11.852Z,22.12
2023-05-18T15:48:14.560Z,21.97
2023-05-18T15:53:17.341Z,21.72
2023-05-18T15:58:20.055Z,21.46
2023-05-18T16:03:23.015Z,21.20
2023-05-18T16:08:25.849Z,20.88
2023-05-18T16:13:28.595Z,20.57
2023-05-18T16:18:31.608Z,20.14
2023-05-18T16:23:34.256Z,19.94
2023-05-18T16:28:36.965Z,19.71
2023-05-18T16:33:40.327Z,19.43
2023-05-18T16:38:43.010Z,19.22
2023-05-18T16:43:45.732Z,18.95
2023-05-18T16:48:48.514Z,18.80
2023-05-18T16:53:52.585Z,18.64
2023-05-18T16:58:55.284Z,18.50
2023-05-18T17:03:58.240Z,18.30
2023-05-18T17:09:01.222Z,18.05
2023-05-18T17:14:04.487Z,17.86
2023-05-18T17:19:08.060Z,17.80
2023-05-18T17:24:10.745Z,17.69
2023-05-18T17:29:15.064Z,17.40
2023-05-18T17:34:19.883Z,17.20
2023-05-18T17:39:22.694Z,17.21
2023-05-18T17:44:25.365Z,17.17
2023-05-18T17:49:28.093Z,17.01
2023-05-18T17:54:31.165Z,16.88
2023-05-18T17:59:36.140Z,16.77
2023-05-18T18:04:39.979Z,16.62
2023-05-18T18:09:42.744Z,16.57
2023-05-18T18:14:45.470Z,16.48
2023-05-18T18:19:48.166Z,16.42
2023-05-18T18:24:50.891Z,16.24
2023-05-18T18:29:53.544Z,16.22
2023-05-18T18:34:56.536Z,16.15
2023-05-18T18:39:59.172Z,16.07
2023-05-18T18:45:01.883Z,15.90
2023-05-18T18:50:08.166Z,15.86
2023-05-18T18:55:10.791Z,15.74
2023-05-18T19:00:17.353Z,15.67
2023-05-18T19:05:23.348Z,15.68
2023-05-18T19:10:26.319Z,15.48
2023-05-18T19:15:28.983Z,15.50
2023-05-18T19:20:31.834Z,15.41
2023-05-18T19:25:34.621Z,15.30
2023-05-18T19:30:37.491Z,15.25
2023-05-18T19:35:40.210Z,15.21
2023-05-18T19:40:42.858Z,15.18
2023-05-18T19:45:46.216Z,15.12
2023-05-18T19:50:48.992Z,15.14
2023-05-18T19:55:52.038Z,15.04
2023-05-18T20:00:54.951Z,15.10
2023-05-18T20:05:58.284Z,15.09
2023-05-18T20:11:01.055Z,15.08
2023-05-18T20:16:03.816Z,15.03
2023-05-18T20:21:06.933Z,14.98
2023-05-18T20:26:09.717Z,14.97
2023-05-18T20:31:12.541Z,14.94
2023-05-18T20:36:15.732Z,14.83
2023-05-18T20:41:20.058Z,14.74
2023-05-18T20:46:24.848Z,14.76
2023-05-18T20:51:28.315Z,14.80
2023-05-18T20:56:31.053Z,14.78
2023-05-18T21:01:39.425Z,14.86
2023-05-18T21:06:44.097Z,14.91
2023-05-18T21:11:47.060Z,14.99
2023-05-18T21:16:49.791Z,14.99
2023-05-18T21:21:52.475Z,15.00
2023-05-18T21:26:55.939Z,15.00
2023-05-18T21:31:59.829Z,14.97
2023-05-18T21:37:02.572Z,14.81
2023-05-18T21:42:05.578Z,14.89
2023-05-18T21:47:08.294Z,14.84
2023-05-18T21:52:11.054Z,14.95
2023-05-18T21:57:13.825Z,14.92
2023-05-18T22:02:16.714Z,15.00
2023-05-18T22:07:19.352Z,14.95
2023-05-18T22:12:22.207Z,14.91
2023-05-18T22:17:25.102Z,14.91
2023-05-18T22:22:30.608Z,14.92
2023-05-18T22:27:36.618Z,14.82
2023-05-18T22:32:39.575Z,14.91
2023-05-18T22:37:42.381Z,14.85
2023-05-18T22:42:45.004Z,14.80
2023-05-18T22:47:48.379Z,14.80
2023-05-18T22:52:51.363Z,14.80
2023-05-18T22:57:54.094Z,14.73
2023-05-18T23:02:57.024Z,14.68
2023-05-18T23:07:59.864Z,14.63
2023-05-18T23:13:02.615Z,14.69
2023-05-18T23:18:09.421Z,14.71
2023-05-18T23:23:12.334Z,14.65
2023-05-18T23:28:15.275Z,14.63
2023-05-18T23:33:18.297Z,14.60
2023-05-18T23:38:28.949Z,14.51
2023-05-18T23:43:31.943Z,14.53
2023-05-18T23:48:34.888Z,14.37
2023-05-18T23:53:37.914Z,14.14
2023-05-18T23:58:42.009Z,14.06
